createdAt,value
2022-08-23T00:02:32.740Z,5.13
2022-08-23T00:05:35.612Z,5.93
2022-08-23T00:08:38.312Z,6.07
2022-08-23T00:11:50.375Z,5.97
2022-08-23T00:14:55.033Z,5.68
2022-08-23T00:17:56.677Z,6.00
2022-08-23T00:20:58.372Z,6.00
2022-08-23T00:23:59.951Z,5.65
2022-08-23T00:27:13.813Z,5.47
2022-08-23T00:30:16.475Z,5.75
2022-08-23T00:33:18.049Z,5.05
2022-08-23T00:36:19.651Z,5.63
2022-08-23T00:39:21.428Z,5.82
2022-08-23T00:42:59.682Z,5.55
2022-08-23T00:46:44.179Z,6.10
2022-08-23T00:49:50.089Z,5.57
2022-08-23T00:52:57.878Z,5.05
2022-08-23T00:56:03.481Z,5.22
2022-08-23T00:59:06.714Z,5.10
2022-08-23T01:02:09.120Z,5.55
2022-08-23T01:05:12.423Z,5.15
2022-08-23T01:08:15.660Z,5.05
2022-08-23T01:11:33.256Z,6.25
2022-08-23T01:14:44.030Z,5.65
2022-08-23T01:18:01.582Z,5.88
2022-08-23T01:21:16.605Z,5.90
2022-08-23T01:24:41.054Z,5.55
2022-08-23T01:27:41.262Z,5.50
2022-08-23T01:30:44.583Z,5.22
2022-08-23T01:33:49.840Z,5.95
2022-08-23T01:36:51.432Z,5.95
2022-08-23T01:39:53.312Z,6.07
2022-08-23T01:42:54.982Z,5.38
2022-08-23T01:45:56.598Z,4.90
2022-08-23T01:48:58.556Z,5.50
2022-08-23T01:52:00.162Z,6.72
2022-08-23T01:55:04.563Z,5.93
2022-08-23T01:58:07.943Z,6.43
2022-08-23T02:01:09.798Z,6.22
2022-08-23T02:04:11.423Z,5.65
2022-08-23T02:07:13.091Z,6.90
2022-08-23T02:10:15.118Z,6.55
2022-08-23T02:13:17.687Z,6.57
2022-08-23T02:16:31.652Z,5.82
2022-08-23T02:19:34.875Z,6.22
2022-08-23T02:22:39.482Z,6.88
2022-08-23T02:25:41.123Z,6.25
2022-08-23T02:28:42.812Z,6.30
2022-08-23T02:31:44.662Z,6.07
2022-08-23T02:35:05.164Z,6.82
2022-08-23T02:38:11.684Z,5.70
2022-08-23T02:41:14.201Z,6.18
2022-08-23T02:44:16.196Z,6.82
2022-08-23T02:47:18.157Z,7.05
2022-08-23T02:50:20.221Z,6.03
2022-08-23T02:53:21.979Z,6.53
2022-08-23T02:56:23.792Z,6.78
2022-08-23T02:59:25.513Z,7.18
2022-08-23T03:02:27.613Z,7.30
2022-08-23T03:05:30.246Z,7.50
2022-08-23T03:08:31.938Z,7.45
2022-08-23T03:11:34.310Z,7.22
2022-08-23T03:14:37.943Z,7.00
2022-08-23T03:17:40.022Z,6.95
2022-08-23T03:20:42.734Z,8.18
2022-08-23T03:23:44.733Z,8.07
2022-08-23T03:26:46.791Z,7.53
2022-08-23T03:29:48.835Z,7.88
2022-08-23T03:32:50.588Z,8.07
2022-08-23T03:35:52.225Z,7.57
2022-08-23T03:38:53.844Z,7.10
2022-08-23T03:41:55.516Z,7.03
2022-08-23T03:45:01.908Z,8.13
2022-08-23T03:48:04.877Z,7.80
2022-08-23T03:51:06.659Z,8.45
2022-08-23T03:54:08.468Z,8.63
2022-08-23T03:57:10.252Z,8.50
2022-08-23T04:00:14.210Z,8.90
2022-08-23T04:03:21.986Z,9.48
2022-08-23T04:06:23.634Z,8.93
2022-08-23T04:09:25.232Z,8.93
2022-08-23T04:12:26.883Z,9.27
2022-08-23T04:15:28.767Z,8.20
2022-08-23T04:18:31.944Z,8.52
2022-08-23T04:21:35.411Z,8.30
2022-08-23T04:24:37.284Z,8.25
2022-08-23T04:27:38.882Z,9.10
2022-08-23T04:30:40.554Z,8.27
2022-08-23T04:33:43.640Z,8.38
2022-08-23T04:36:50.011Z,8.75
2022-08-23T04:40:11.976Z,8.77
2022-08-23T04:43:13.695Z,7.75
2022-08-23T04:46:16.220Z,8.38
2022-08-23T04:49:18.672Z,8.02
2022-08-23T04:52:20.353Z,8.23
2022-08-23T04:55:22.074Z,8.80
2022-08-23T04:58:23.714Z,8.70
2022-08-23T05:01:25.594Z,8.20
2022-08-23T05:04:27.379Z,8.13
2022-08-23T05:07:41.611Z,8.50
2022-08-23T05:10:44.496Z,6.88
2022-08-23T05:13:46.842Z,7.10
2022-08-23T05:16:48.445Z,6.35
2022-08-23T05:19:50.063Z,5.70
2022-08-23T05:22:51.665Z,5.20
2022-08-23T05:25:56.750Z,5.15
2022-08-23T05:28:58.336Z,4.68
2022-08-23T05:31:59.936Z,5.20
2022-08-23T05:35:01.554Z,4.57
2022-08-23T05:38:04.413Z,4.30
2022-08-23T05:41:07.079Z,4.68
2022-08-23T05:44:10.365Z,3.47
2022-08-23T05:47:15.854Z,3.63
2022-08-23T05:50:17.564Z,3.85
2022-08-23T05:53:19.164Z,3.20
2022-08-23T05:56:33.249Z,3.50
2022-08-23T05:59:34.841Z,3.55
2022-08-23T06:02:36.428Z,3.50
2022-08-23T06:05:41.794Z,3.70
2022-08-23T06:08:46.306Z,3.80
2022-08-23T06:11:48.876Z,3.40
2022-08-23T06:14:50.550Z,3.97
2022-08-23T06:17:54.312Z,2.97
2022-08-23T06:21:04.656Z,3.75
2022-08-23T06:24:07.151Z,3.50
2022-08-23T06:27:08.828Z,3.45
2022-08-23T06:30:13.149Z,3.35
2022-08-23T06:33:15.571Z,3.33
2022-08-23T06:36:17.283Z,3.33
2022-08-23T06:39:21.265Z,3.60
2022-08-23T06:42:38.290Z,3.40
2022-08-23T06:45:40.415Z,3.30
2022-08-23T06:48:48.539Z,3.30
2022-08-23T06:51:52.459Z,3.17
2022-08-23T06:54:55.211Z,3.75
2022-08-23T06:57:56.869Z,3.50
2022-08-23T07:01:44.780Z,3.92
2022-08-23T07:04:45.612Z,3.72
2022-08-23T07:07:47.293Z,4.28
2022-08-23T07:10:48.978Z,4.05
2022-08-23T07:13:52.053Z,4.45
2022-08-23T07:16:57.508Z,3.45
2022-08-23T07:20:00.131Z,4.28
2022-08-23T07:23:01.993Z,3.53
2022-08-23T07:26:08.755Z,4.18
2022-08-23T07:29:11.352Z,3.47
2022-08-23T07:32:14.114Z,3.60
2022-08-23T07:35:15.884Z,3.75
2022-08-23T07:38:18.285Z,4.10
2022-08-23T07:41:20.555Z,3.80
2022-08-23T07:44:24.461Z,4.07
2022-08-23T07:47:29.575Z,4.57
2022-08-23T07:50:31.160Z,4.55
2022-08-23T07:53:37.603Z,4.00
2022-08-23T07:56:40.501Z,4.00
2022-08-23T07:59:42.155Z,11.23
2022-08-23T08:02:43.882Z,4.18
2022-08-23T08:05:45.857Z,4.22
2022-08-23T08:08:48.563Z,3.88
2022-08-23T08:11:52.224Z,4.55
2022-08-23T08:14:54.694Z,4.13
2022-08-23T08:17:56.317Z,4.00
2022-08-23T08:20:58.476Z,4.45
2022-08-23T08:24:00.912Z,4.15
2022-08-23T08:27:02.568Z,3.80
2022-08-23T08:30:06.478Z,4.32
2022-08-23T08:33:08.088Z,4.00
2022-08-23T08:36:32.034Z,4.20
2022-08-23T08:39:34.502Z,4.18
2022-08-23T08:42:51.638Z,5.13
2022-08-23T08:46:03.293Z,4.50
2022-08-23T08:49:07.582Z,4.78
2022-08-23T08:52:21.047Z,4.70
2022-08-23T08:55:27.260Z,4.18
2022-08-23T08:58:41.001Z,4.25
2022-08-23T09:01:42.700Z,4.70
2022-08-23T09:04:45.830Z,5.03
2022-08-23T09:07:50.399Z,4.60
2022-08-23T09:11:02.681Z,4.20
2022-08-23T09:14:42.302Z,4.35
2022-08-23T09:17:51.957Z,4.90
2022-08-23T09:20:55.237Z,4.45
2022-08-23T09:24:01.001Z,4.50
2022-08-23T09:27:03.934Z,4.80
2022-08-23T09:30:07.435Z,4.60
2022-08-23T09:33:26.409Z,4.65
2022-08-23T09:36:33.889Z,3.88
2022-08-23T09:39:39.066Z,4.47
2022-08-23T09:42:41.400Z,4.35
2022-08-23T09:45:56.650Z,4.55
2022-08-23T09:49:01.031Z,4.15
2022-08-23T09:52:22.360Z,4.35
2022-08-23T09:55:38.778Z,3.20
2022-08-23T09:58:44.038Z,4.13
2022-08-23T10:01:48.226Z,4.55
2022-08-23T10:05:04.049Z,4.30
2022-08-23T10:08:10.244Z,4.22
2022-08-23T10:11:20.363Z,3.65
2022-08-23T10:14:23.487Z,4.18
2022-08-23T10:18:03.529Z,4.22
2022-08-23T10:21:27.687Z,2.78
2022-08-23T10:24:35.787Z,3.45
2022-08-23T10:28:25.988Z,4.25
2022-08-23T10:35:00.917Z,2.70
2022-08-23T10:38:40.532Z,4.15
2022-08-23T10:42:13.187Z,3.78
2022-08-23T10:45:25.564Z,4.22
2022-08-23T10:48:31.967Z,3.83
2022-08-23T10:51:40.535Z,4.00
2022-08-23T10:55:16.375Z,3.90
2022-08-23T10:58:23.639Z,4.25
2022-08-23T11:01:36.054Z,3.15
2022-08-23T11:04:37.635Z,3.95
2022-08-23T11:07:43.220Z,3.67
2022-08-23T11:10:55.657Z,4.03
2022-08-23T11:13:59.014Z,4.50
2022-08-23T11:17:05.568Z,3.95
2022-08-23T11:20:11.661Z,3.85
2022-08-23T11:23:14.994Z,4.25
2022-08-23T11:26:22.543Z,3.65
2022-08-23T11:29:24.094Z,3.40
2022-08-23T11:32:45.322Z,4.00
2022-08-23T11:36:16.364Z,4.47
2022-08-23T11:39:20.537Z,4.00
2022-08-23T11:42:51.907Z,3.80
2022-08-23T11:46:13.181Z,4.18
2022-08-23T11:49:30.243Z,4.30
2022-08-23T11:53:08.016Z,4.20
2022-08-23T11:56:28.305Z,4.68
2022-08-23T11:59:57.725Z,4.00
2022-08-23T12:03:34.250Z,2.92
2022-08-23T12:06:40.758Z,4.00
2022-08-23T12:09:42.308Z,4.03
2022-08-23T12:12:47.259Z,4.40
2022-08-23T12:16:30.276Z,4.28
2022-08-23T12:19:41.792Z,3.60
2022-08-23T12:23:07.711Z,3.85
2022-08-23T12:26:35.307Z,4.00
2022-08-23T12:29:49.212Z,3.22
2022-08-23T12:33:08.376Z,3.28
2022-08-23T12:36:16.827Z,3.60
2022-08-23T12:39:26.545Z,3.75
2022-08-23T12:42:34.839Z,3.97
2022-08-23T12:45:42.547Z,4.00
2022-08-23T12:48:47.300Z,3.42
2022-08-23T12:51:51.623Z,2.85
2022-08-23T12:54:55.002Z,3.50
2022-08-23T12:57:58.048Z,2.60
2022-08-23T13:01:04.548Z,3.20
2022-08-23T13:04:10.747Z,3.38
2022-08-23T13:07:19.777Z,2.50
2022-08-23T13:10:21.639Z,2.78
2022-08-23T13:13:26.670Z,3.00
2022-08-23T13:16:32.974Z,2.72
2022-08-23T13:19:34.623Z,3.10
2022-08-23T13:23:00.486Z,3.38
2022-08-23T13:26:24.819Z,2.80
2022-08-23T13:29:26.432Z,3.40
2022-08-23T13:32:29.468Z,3.28
2022-08-23T13:35:34.117Z,3.10
2022-08-23T13:38:36.078Z,2.72
2022-08-23T13:41:38.856Z,3.33
2022-08-23T13:44:42.993Z,3.30
2022-08-23T13:47:50.645Z,3.00
2022-08-23T13:50:53.169Z,2.90
2022-08-23T13:53:56.905Z,3.47
2022-08-23T13:57:07.604Z,3.05
2022-08-23T14:00:10.794Z,2.90
2022-08-23T14:03:12.730Z,3.25
2022-08-23T14:06:14.367Z,2.97
2022-08-23T14:09:17.093Z,3.55
2022-08-23T14:12:22.797Z,3.60
2022-08-23T14:15:54.542Z,3.10
2022-08-23T14:22:07.862Z,3.30
2022-08-23T14:25:10.904Z,3.22
2022-08-23T14:28:13.191Z,2.85
2022-08-23T14:31:15.019Z,2.67
2022-08-23T14:34:16.631Z,3.13
2022-08-23T14:38:02.393Z,3.17
2022-08-23T14:40:39.957Z,3.13
2022-08-23T14:43:41.553Z,3.40
2022-08-23T14:46:46.509Z,3.03
2022-08-23T14:49:52.002Z,3.00
2022-08-23T14:52:55.808Z,3.15
2022-08-23T14:56:20.344Z,2.72
2022-08-23T14:59:19.247Z,3.13
2022-08-23T15:02:24.615Z,2.42
2022-08-23T15:05:26.223Z,2.60
2022-08-23T15:08:27.835Z,3.08
2022-08-23T15:14:51.150Z,2.78
2022-08-23T15:17:56.889Z,2.58
2022-08-23T15:20:58.655Z,2.83
2022-08-23T15:24:00.240Z,2.78
2022-08-23T15:27:03.324Z,2.67
2022-08-23T15:30:05.618Z,2.78
2022-08-23T15:33:07.378Z,2.97
2022-08-23T15:36:16.115Z,3.42
2022-08-23T15:39:18.450Z,3.20
2022-08-23T15:42:20.728Z,3.05
2022-08-23T15:45:22.506Z,2.92
2022-08-23T15:48:30.778Z,3.15
2022-08-23T15:51:32.460Z,2.90
2022-08-23T15:54:34.024Z,2.60
2022-08-23T15:57:50.576Z,2.92
2022-08-23T16:00:53.188Z,2.40
2022-08-23T16:03:54.819Z,2.50
2022-08-23T16:06:56.464Z,2.72
2022-08-23T16:09:59.645Z,3.20
2022-08-23T16:13:03.391Z,2.78
2022-08-23T16:16:05.376Z,3.50
2022-08-23T16:19:09.719Z,2.80
2022-08-23T16:22:15.960Z,3.25
2022-08-23T16:25:17.606Z,3.10
2022-08-23T16:28:19.205Z,2.45
2022-08-23T16:31:21.004Z,2.80
2022-08-23T16:34:39.167Z,2.70
2022-08-23T16:37:40.721Z,3.60
2022-08-23T16:40:42.325Z,2.65
2022-08-23T16:43:43.918Z,2.60
2022-08-23T16:46:45.572Z,2.72
2022-08-23T16:49:47.177Z,2.85
2022-08-23T16:52:48.816Z,3.10
2022-08-23T16:55:50.634Z,2.83
2022-08-23T16:58:52.296Z,2.90
2022-08-23T17:01:58.261Z,2.85
2022-08-23T17:05:00.759Z,2.70
2022-08-23T17:08:03.100Z,3.35
2022-08-23T17:11:05.980Z,2.90
2022-08-23T17:14:07.639Z,2.83
2022-08-23T17:17:09.254Z,2.92
2022-08-23T17:20:15.299Z,2.58
2022-08-23T17:23:18.160Z,2.70
2022-08-23T17:26:20.328Z,2.78
2022-08-23T17:29:21.949Z,2.40
2022-08-23T17:32:23.572Z,2.78
2022-08-23T17:35:29.383Z,2.47
2022-08-23T17:38:35.633Z,2.70
2022-08-23T17:41:40.048Z,2.95
2022-08-23T17:44:44.173Z,2.90
2022-08-23T17:47:46.168Z,2.70
2022-08-23T17:50:48.468Z,2.45
2022-08-23T17:53:50.116Z,2.42
2022-08-23T17:56:51.820Z,2.90
2022-08-23T17:59:53.622Z,2.78
2022-08-23T18:02:55.239Z,2.60
2022-08-23T18:05:57.156Z,2.53
2022-08-23T18:08:58.987Z,2.47
2022-08-23T18:12:02.441Z,2.42
2022-08-23T18:15:04.775Z,2.42
2022-08-23T18:18:06.733Z,3.08
2022-08-23T18:21:09.794Z,2.60
2022-08-23T18:24:11.637Z,2.40
2022-08-23T18:27:32.190Z,2.28
2022-08-23T18:30:44.146Z,2.38
2022-08-23T18:33:47.147Z,2.40
2022-08-23T18:36:49.171Z,3.10
2022-08-23T18:40:24.335Z,2.50
2022-08-23T18:43:27.535Z,2.60
2022-08-23T18:46:41.189Z,2.75
2022-08-23T18:49:43.222Z,2.83
2022-08-23T18:52:45.179Z,2.85
2022-08-23T18:55:47.157Z,2.78
2022-08-23T18:58:48.887Z,2.83
2022-08-23T19:01:51.089Z,2.58
2022-08-23T19:04:55.882Z,3.10
2022-08-23T19:07:57.781Z,2.92
2022-08-23T19:10:59.495Z,3.15
2022-08-23T19:14:04.379Z,2.72
2022-08-23T19:17:09.614Z,3.33
2022-08-23T19:20:12.059Z,3.17
2022-08-23T19:23:13.796Z,3.70
2022-08-23T19:26:17.235Z,3.50
2022-08-23T19:29:20.535Z,3.17
2022-08-23T19:32:22.193Z,3.50
2022-08-23T19:35:25.078Z,3.28
2022-08-23T19:38:27.749Z,3.22
2022-08-23T19:41:30.127Z,3.70
2022-08-23T19:44:34.849Z,3.72
2022-08-23T19:47:36.483Z,3.88
2022-08-23T19:50:40.588Z,3.75
2022-08-23T19:53:42.354Z,3.25
2022-08-23T19:56:48.605Z,3.60
2022-08-23T19:59:50.204Z,3.60
2022-08-23T20:02:51.824Z,3.30
2022-08-23T20:05:53.392Z,3.50
2022-08-23T20:08:55.375Z,3.42
2022-08-23T20:11:58.138Z,3.80
2022-08-23T20:15:01.220Z,2.88
2022-08-23T20:18:02.895Z,3.00
2022-08-23T20:21:05.864Z,2.90
2022-08-23T20:24:13.116Z,3.17
2022-08-23T20:27:24.480Z,3.28
2022-08-23T20:30:33.376Z,2.88
2022-08-23T20:33:34.968Z,2.70
2022-08-23T20:36:36.571Z,3.00
2022-08-23T20:39:38.241Z,3.00
2022-08-23T20:42:40.082Z,2.83
2022-08-23T20:45:41.671Z,2.67
2022-08-23T20:48:51.280Z,2.72
2022-08-23T20:51:52.911Z,2.92
2022-08-23T20:54:54.506Z,3.05
2022-08-23T20:57:56.130Z,2.78
2022-08-23T21:00:58.119Z,2.80
2022-08-23T21:04:01.040Z,2.95
2022-08-23T21:07:02.644Z,2.95
2022-08-23T21:10:05.367Z,3.00
2022-08-23T21:13:10.604Z,3.13
2022-08-23T21:16:13.841Z,3.05
2022-08-23T21:19:16.226Z,3.00
2022-08-23T21:22:17.886Z,2.80
2022-08-23T21:25:21.252Z,3.47
2022-08-23T21:28:24.285Z,3.47
2022-08-23T21:31:26.751Z,3.20
2022-08-23T21:34:28.569Z,3.38
2022-08-23T21:37:31.171Z,3.83
2022-08-23T21:40:32.780Z,3.33
2022-08-23T21:43:37.158Z,3.47
2022-08-23T21:46:39.162Z,4.22
2022-08-23T21:49:40.889Z,3.90
2022-08-23T21:52:42.516Z,3.10
2022-08-23T21:55:45.177Z,3.53
2022-08-23T21:58:50.660Z,3.47
2022-08-23T22:01:52.497Z,3.65
2022-08-23T22:04:54.405Z,3.40
2022-08-23T22:07:56.017Z,3.53
2022-08-23T22:11:07.082Z,3.22
2022-08-23T22:14:14.433Z,3.13
2022-08-23T22:17:17.742Z,3.53
2022-08-23T22:20:19.562Z,3.35
2022-08-23T22:23:21.601Z,3.30
2022-08-23T22:26:23.230Z,3.38
2022-08-23T22:29:24.910Z,3.20
2022-08-23T22:32:26.712Z,3.03
2022-08-23T22:35:28.529Z,3.25
2022-08-23T22:38:30.612Z,3.53
2022-08-23T22:41:33.234Z,3.53
2022-08-23T22:44:35.196Z,3.70
2022-08-23T22:47:36.823Z,3.83
2022-08-23T22:50:38.425Z,3.55
2022-08-23T22:53:43.629Z,3.45
2022-08-23T22:56:53.238Z,3.55
2022-08-23T22:59:55.045Z,3.50
2022-08-23T23:02:56.839Z,3.50
2022-08-23T23:05:58.583Z,3.72
2022-08-23T23:09:02.243Z,3.50
2022-08-23T23:12:04.266Z,3.90
2022-08-23T23:15:06.571Z,3.47
2022-08-23T23:18:09.408Z,3.78
2022-08-23T23:21:11.008Z,3.72
2022-08-23T23:24:17.321Z,3.88
2022-08-23T23:27:18.964Z,4.25
2022-08-23T23:30:21.047Z,3.67
2022-08-23T23:33:24.392Z,3.83
2022-08-23T23:36:26.494Z,3.75
2022-08-23T23:39:28.867Z,3.60
2022-08-23T23:42:30.625Z,3.53
2022-08-23T23:45:32.459Z,3.85
2022-08-23T23:48:34.136Z,3.88
2022-08-23T23:51:35.734Z,4.05
2022-08-23T23:54:38.362Z,3.88
2022-08-23T23:57:40.093Z,3.53
